| time (UTC) | temp C | wind direction | speed KPH | gust KPH | rain 1hr cm | rain 24hr cm | rain mn cm | humidity % | barometer mb |
| 20260510103904 | 9 | 68 | 0.0 | 9.7 | 0.00 | 0.41 | 0.05 | 72 | 1014.7 |
| 20260510103403 | 9 | 45 | 4.8 | 9.7 | 0.00 | 0.41 | 0.05 | 72 | 1014.4 |
| 20260510102904 | 9 | 45 | 0.0 | 16.1 | 0.00 | 0.41 | 0.05 | 72 | 1014.4 |
| 20260510102404 | 9 | 55 | 1.6 | 16.1 | 0.00 | 0.41 | 0.05 | 72 | 1014.4 |
| 20260510101903 | 9 | 45 | 8.0 | 16.1 | 0.00 | 0.41 | 0.05 | 72 | 1014.0 |
| 20260510101404 | 9 | 22 | 4.8 | 4.8 | 0.00 | 0.41 | 0.05 | 73 | 1014.0 |
| 20260510100904 | 9 | 60 | 9.7 | 9.7 | 0.00 | 0.41 | 0.05 | 73 | 1014.0 |
| 20260510100403 | 9 | 68 | 1.6 | 4.8 | 0.00 | 0.41 | 0.05 | 73 | 1014.0 |
| 20260510095904 | 9 | 45 | 1.6 | 1.6 | 0.00 | 0.41 | 0.05 | 73 | 1013.8 |
| 20260510095403 | 9 | 31 | 8.0 | 12.9 | 0.00 | 0.41 | 0.05 | 74 | 1013.7 |
| 20260510094904 | 9 | 22 | 0.0 | 0.0 | 0.00 | 0.41 | 0.05 | 75 | 1013.7 |
| 20260510094404 | 9 | 68 | 0.0 | 0.0 | 0.00 | 0.41 | 0.05 | 75 | 1013.7 |
| 20260510093903 | 9 | 68 | 0.0 | 9.7 | 0.00 | 0.41 | 0.05 | 75 | 1013.7 |
| 20260510093404 | 9 | 90 | 9.7 | 9.7 | 0.00 | 0.41 | 0.05 | 74 | 1013.7 |
| 20260510092904 | 9 | 45 | 16.1 | 19.3 | 0.00 | 0.41 | 0.05 | 74 | 1013.4 |
| 20260510092404 | 9 | 68 | 0.0 | 9.7 | 0.00 | 0.41 | 0.05 | 76 | 1013.2 |
| 20260510091404 | 9 | 45 | 3.2 | 8.0 | 0.00 | 0.41 | 0.05 | 77 | 1013.0 |
| 20260510090404 | 10 | 45 | 1.6 | 4.8 | 0.00 | 0.41 | 0.05 | 78 | 1012.8 |
| 20260510085404 | 10 | 27 | 11.3 | 12.9 | 0.00 | 0.41 | 0.05 | 79 | 1012.7 |
| 20260510084403 | 10 | 22 | 0.0 | 0.0 | 0.00 | 0.41 | 0.05 | 79 | 1012.5 |
| 20260510083905 | 10 | 36 | 0.0 | 4.8 | 0.00 | 0.41 | 0.05 | 80 | 1012.4 |
| 20260510083404 | 10 | 22 | 4.8 | 9.7 | 0.00 | 0.41 | 0.05 | 80 | 1012.4 |
| 20260510082903 | 10 | 45 | 3.2 | 9.7 | 0.00 | 0.41 | 0.05 | 80 | 1012.4 |
| 20260510082403 | 10 | 39 | 0.0 | 12.9 | 0.00 | 0.41 | 0.05 | 79 | 1012.4 |
| 20260510081904 | 10 | 45 | 11.3 | 12.9 | 0.00 | 0.41 | 0.05 | 79 | 1012.0 |
| 20260510081404 | 10 | 89 | 1.6 | 4.8 | 0.00 | 0.41 | 0.05 | 79 | 1012.0 |
| 20260510080904 | 10 | 22 | 0.0 | 9.7 | 0.00 | 0.41 | 0.05 | 79 | 1012.0 |
| 20260510080404 | 10 | 45 | 9.7 | 9.7 | 0.00 | 0.41 | 0.05 | 79 | 1012.0 |
| 20260510075903 | 10 | 68 | 8.0 | 11.3 | 0.00 | 0.41 | 0.05 | 78 | 1011.9 |
| 20260510075404 | 10 | 45 | 1.6 | 9.7 | 0.00 | 0.41 | 0.05 | 78 | 1011.7 |
| 20260510074904 | 10 | 22 | 0.0 | 0.0 | 0.00 | 0.41 | 0.05 | 78 | 1011.6 |
| 20260510074403 | 10 | 22 | 0.0 | 0.0 | 0.00 | 0.41 | 0.05 | 78 | 1011.7 |
| 20260510073904 | 10 | 45 | 1.6 | 1.6 | 0.00 | 0.41 | 0.05 | 78 | 1011.7 |
| 20260510073404 | 10 | 22 | 0.0 | 0.0 | 0.00 | 0.41 | 0.05 | 79 | 1011.3 |
| 20260510072903 | 10 | 63 | 6.4 | 8.0 | 0.00 | 0.41 | 0.05 | 79 | 1011.3 |
| 20260510071903 | 10 | 45 | 0.0 | 0.0 | 0.00 | 0.41 | 0.05 | 79 | 1011.3 |
| 20260510071403 | 10 | 68 | 0.0 | 0.0 | 0.00 | 0.41 | 0.05 | 79 | 1011.3 |
| 20260510070904 | 10 | 101 | 0.0 | 0.0 | 0.00 | 0.41 | 0.05 | 79 | 1011.3 |
| 20260510070403 | 10 | 112 | 0.0 | 0.0 | 0.00 | 0.41 | 0.05 | 79 | 1011.3 |
| 20260510065904 | 10 | 45 | 0.0 | 0.0 | 0.00 | 0.41 | 0.05 | 79 | 1011.0 |
| 20260510064903 | 10 | 45 | 0.0 | 0.0 | 0.00 | 0.41 | 0.05 | 79 | 1011.0 |
| 20260510064404 | 10 | 45 | 0.0 | 0.0 | 0.00 | 0.41 | 0.05 | 79 | 1011.0 |
| 20260510063903 | 10 | 45 | 0.0 | 0.0 | 0.00 | 0.41 | 0.05 | 79 | 1010.8 |
| 20260510063404 | 10 | 68 | 0.0 | 0.0 | 0.00 | 0.41 | 0.05 | 79 | 1010.8 |
| 20260510062904 | 10 | 69 | 0.0 | 0.0 | 0.00 | 0.41 | 0.05 | 79 | 1010.7 |
| 20260510062404 | 10 | 63 | 0.0 | 0.0 | 0.00 | 0.41 | 0.05 | 79 | 1010.9 |
| 20260510061904 | 10 | 45 | 0.0 | 0.0 | 0.00 | 0.41 | 0.05 | 79 | 1010.7 |
| 20260510060904 | 10 | 45 | 0.0 | 0.0 | 0.00 | 0.41 | 0.05 | 80 | 1010.7 |
| 20260510060404 | 11 | 45 | 0.0 | 0.0 | 0.00 | 0.41 | 0.05 | 80 | 1010.7 |
| 20260510055904 | 11 | 68 | 0.0 | 0.0 | 0.00 | 0.41 | 0.05 | 80 | 1010.7 |
| 20260510055403 | 11 | 52 | 0.0 | 0.0 | 0.00 | 0.41 | 0.05 | 80 | 1010.7 |
| 20260510054904 | 11 | 22 | 4.8 | 9.7 | 0.05 | 0.41 | 0.05 | 80 | 1010.7 |
| 20260510054404 | 11 | 68 | 0.0 | 8.0 | 0.05 | 0.41 | 0.05 | 81 | 1011.0 |
| 20260510053904 | 11 | 45 | 0.0 | 8.0 | 0.05 | 0.41 | 0.05 | 82 | 1011.0 |
| 20260510053403 | 11 | 45 | 0.0 | 0.0 | 0.05 | 0.41 | 0.05 | 82 | 1011.3 |
| 20260510052904 | 11 | 45 | 0.0 | 0.0 | 0.05 | 0.41 | 0.05 | 82 | 1011.2 |
| 20260510052403 | 11 | 68 | 0.0 | 11.3 | 0.05 | 0.41 | 0.05 | 82 | 1011.0 |
| 20260510051904 | 11 | 22 | 6.4 | 11.3 | 0.05 | 0.41 | 0.05 | 82 | 1010.7 |
| 20260510051403 | 11 | 68 | 0.0 | 0.0 | 0.05 | 0.41 | 0.05 | 82 | 1010.5 |
| 20260510050404 | 11 | 22 | 8.0 | 14.5 | 0.05 | 0.41 | 0.05 | 82 | 1009.6 |
| 20260510045904 | 12 | 68 | 3.2 | 14.5 | 0.05 | 0.41 | 0.05 | 81 | 1009.6 |
| 20260510045403 | 12 | 29 | 22.5 | 25.7 | 0.05 | 0.41 | 0.05 | 81 | 1009.6 |
| 20260510044903 | 13 | 22 | 9.7 | 16.1 | 0.00 | 0.36 | 0.00 | 81 | 1009.4 |
| 20260510044404 | 13 | 21 | 0.0 | 11.3 | 0.00 | 0.36 | 0.00 | 81 | 1009.6 |
| 20260510043904 | 13 | 0 | 0.0 | 11.3 | 0.00 | 0.36 | 0.00 | 81 | 1010.0 |
| 20260510043404 | 13 | 315 | 0.0 | 0.0 | 0.00 | 0.36 | 0.00 | 82 | 1010.1 |
| 20260510042904 | 13 | 292 | 0.0 | 0.0 | 0.00 | 0.36 | 0.00 | 82 | 1009.0 |
| 20260510041904 | 13 | 202 | 0.0 | 0.0 | 0.00 | 0.36 | 0.00 | 83 | 1009.0 |
| 20260510041404 | 13 | 200 | 0.0 | 0.0 | 0.00 | 0.36 | 0.00 | 83 | 1008.9 |
| 20260510040903 | 13 | 198 | 0.0 | 0.0 | 0.00 | 0.36 | 0.00 | 84 | 1008.6 |
| 20260510040404 | 13 | 202 | 0.0 | 0.0 | 0.00 | 0.36 | 0.00 | 84 | 1008.6 |
| 20260510035904 | 13 | 206 | 0.0 | 0.0 | 0.00 | 0.36 | 0.36 | 84 | 1008.6 |
| 20260510035403 | 13 | 232 | 0.0 | 0.0 | 0.00 | 0.36 | 0.36 | 84 | 1008.6 |
| 20260510034904 | 13 | 202 | 0.0 | 0.0 | 0.00 | 0.36 | 0.36 | 84 | 1008.3 |
| 20260510034404 | 13 | 199 | 0.0 | 0.0 | 0.00 | 0.36 | 0.36 | 84 | 1008.1 |
| 20260510033904 | 13 | 180 | 0.0 | 0.0 | 0.00 | 0.36 | 0.36 | 84 | 1008.0 |
| 20260510033404 | 13 | 202 | 0.0 | 0.0 | 0.00 | 0.36 | 0.36 | 83 | 1008.0 |
| 20260510032903 | 13 | 201 | 0.0 | 0.0 | 0.00 | 0.36 | 0.36 | 84 | 1008.0 |
| 20260510032404 | 13 | 202 | 0.0 | 1.6 | 0.00 | 0.36 | 0.36 | 84 | 1007.8 |
| 20260510031903 | 13 | 225 | 1.6 | 1.6 | 0.00 | 0.36 | 0.36 | 85 | 1008.0 |
| 20260510031404 | 13 | 225 | 3.2 | 8.0 | 0.00 | 0.36 | 0.36 | 85 | 1008.0 |
| 20260510025404 | 12 | 180 | 0.0 | 0.0 | 0.00 | 0.36 | 0.36 | 84 | 1007.6 |
| 20260510024903 | 13 | 180 | 0.0 | 0.0 | 0.00 | 0.36 | 0.36 | 84 | 1007.6 |
| 20260510024404 | 13 | 182 | 0.0 | 0.0 | 0.00 | 0.36 | 0.36 | 84 | 1007.6 |
| 20260510023403 | 13 | 180 | 0.0 | 0.0 | 0.00 | 0.36 | 0.36 | 84 | 1007.6 |
| 20260510022403 | 13 | 180 | 0.0 | 0.0 | 0.00 | 0.36 | 0.36 | 83 | 1007.6 |
| 20260510021905 | 13 | 180 | 0.0 | 0.0 | 0.00 | 0.36 | 0.36 | 83 | 1007.6 |
| 20260510021404 | 13 | 202 | 0.0 | 0.0 | 0.00 | 0.36 | 0.36 | 83 | 1007.6 |
| 20260510020905 | 13 | 187 | 0.0 | 1.6 | 0.00 | 0.36 | 0.36 | 84 | 1007.6 |
| 20260510020405 | 13 | 225 | 0.0 | 0.0 | 0.00 | 0.36 | 0.36 | 84 | 1007.6 |
| 20260510015905 | 13 | 203 | 0.0 | 0.0 | 0.00 | 0.36 | 0.36 | 84 | 1007.6 |
| 20260510014405 | 13 | 225 | 0.0 | 0.0 | 0.00 | 0.36 | 0.36 | 84 | 1007.3 |
| 20260510013904 | 13 | 217 | 0.0 | 0.0 | 0.00 | 0.36 | 0.36 | 84 | 1007.3 |
| 20260510013405 | 13 | 180 | 0.0 | 0.0 | 0.00 | 0.36 | 0.36 | 84 | 1007.3 |
| 20260510012405 | 13 | 270 | 1.6 | 9.7 | 0.00 | 0.36 | 0.36 | 84 | 1006.9 |
| 20260510011905 | 13 | 225 | 0.0 | 0.0 | 0.00 | 0.36 | 0.36 | 84 | 1006.9 |
| 20260510011404 | 13 | 248 | 0.0 | 0.0 | 0.00 | 0.36 | 0.36 | 84 | 1006.9 |
| 20260510010905 | 13 | 248 | 0.0 | 8.0 | 0.00 | 0.36 | 0.36 | 85 | 1006.6 |
| 20260510010405 | 13 | 248 | 3.2 | 8.0 | 0.00 | 0.36 | 0.36 | 85 | 1006.9 |
| 20260510005405 | 13 | 248 | 9.7 | 11.3 | 0.00 | 0.36 | 0.36 | 85 | 1006.9 |
| 20260510004905 | 13 | 270 | 0.0 | 0.0 | 0.00 | 0.36 | 0.36 | 86 | 1006.9 |
| 20260510004405 | 13 | 202 | 9.7 | 12.9 | 0.00 | 0.36 | 0.36 | 86 | 1006.9 |
| 20260510002905 | 13 | 202 | 1.6 | 1.6 | 0.00 | 0.36 | 0.36 | 87 | 1006.9 |
| 20260510002405 | 13 | 202 | 0.0 | 1.6 | 0.00 | 0.36 | 0.36 | 87 | 1007.0 |
| 20260510001905 | 13 | 202 | 0.0 | 1.6 | 0.00 | 0.36 | 0.36 | 87 | 1006.9 |
| 20260510001405 | 13 | 185 | 0.0 | 0.0 | 0.00 | 0.36 | 0.36 | 87 | 1006.9 |
| 20260510000905 | 13 | 186 | 9.7 | 11.3 | 0.00 | 0.36 | 0.36 | 87 | 1006.9 |
| 20260510000405 | 13 | 225 | 0.0 | 0.0 | 0.00 | 0.36 | 0.36 | 87 | 1006.9 |
| 20260509235904 | 13 | 182 | 0.0 | 0.0 | 0.00 | 0.36 | 0.36 | 87 | 1006.9 |
| 20260509235404 | 13 | 180 | 0.0 | 0.0 | 0.05 | 0.36 | 0.36 | 87 | 1006.9 |
| 20260509234905 | 13 | 248 | 0.0 | 0.0 | 0.10 | 0.36 | 0.36 | 87 | 1006.9 |
| 20260509234404 | 13 | 248 | 0.0 | 0.0 | 0.10 | 0.36 | 0.36 | 86 | 1006.6 |
| 20260509233905 | 13 | 225 | 0.0 | 0.0 | 0.15 | 0.36 | 0.36 | 86 | 1006.6 |
| 20260509233405 | 13 | 202 | 0.0 | 0.0 | 0.30 | 0.36 | 0.36 | 86 | 1006.6 |
| 20260509232905 | 13 | 247 | 0.0 | 8.0 | 0.36 | 0.36 | 0.36 | 87 | 1006.6 |
| 20260509232405 | 13 | 192 | 8.0 | 9.7 | 0.36 | 0.36 | 0.36 | 87 | 1006.6 |
| 20260509231404 | 12 | 212 | 4.8 | 4.8 | 0.36 | 0.36 | 0.36 | 86 | 1006.6 |
| 20260509230905 | 12 | 230 | 0.0 | 4.8 | 0.36 | 0.36 | 0.36 | 86 | 1006.8 |
| 20260509230404 | 12 | 225 | 3.2 | 4.8 | 0.36 | 0.36 | 0.36 | 86 | 1007.3 |
| 20260509224905 | 12 | 270 | 1.6 | 19.3 | 0.25 | 0.25 | 0.25 | 85 | 1007.6 |
| 20260509223905 | 13 | 329 | 9.7 | 35.4 | 0.20 | 0.20 | 0.20 | 81 | 1007.6 |
| 20260509223404 | 15 | 0 | 20.9 | 29.0 | 0.05 | 0.05 | 0.05 | 75 | 1007.6 |
| 20260509220905 | 20 | 313 | 3.2 | 9.7 | 0.00 | 0.00 | 0.00 | 52 | 1004.2 |
| 20260509220405 | 21 | 270 | 9.7 | 12.9 | 0.00 | 0.00 | 0.00 | 52 | 1004.2 |
| 20260509215905 | 21 | 251 | 8.0 | 11.3 | 0.00 | 0.00 | 0.00 | 52 | 1003.9 |
| 20260509215404 | 21 | 248 | 16.1 | 16.1 | 0.00 | 0.00 | 0.00 | 51 | 1003.9 |
| 20260509214905 | 21 | 225 | 4.8 | 11.3 | 0.00 | 0.00 | 0.00 | 51 | 1003.9 |
| 20260509214405 | 21 | 221 | 20.9 | 24.1 | 0.00 | 0.00 | 0.00 | 51 | 1003.8 |
| 20260509213905 | 21 | 206 | 16.1 | 20.9 | 0.00 | 0.00 | 0.00 | 50 | 1003.6 |
| 20260509213405 | 21 | 202 | 20.9 | 20.9 | 0.00 | 0.00 | 0.00 | 50 | 1003.6 |
| 20260509212905 | 21 | 217 | 14.5 | 14.5 | 0.00 | 0.00 | 0.00 | 50 | 1003.6 |
| 20260509211905 | 22 | 180 | 12.9 | 12.9 | 0.00 | 0.00 | 0.00 | 49 | 1003.6 |
| 20260509211404 | 22 | 202 | 14.5 | 14.5 | 0.00 | 0.00 | 0.00 | 48 | 1003.8 |
| 20260509210905 | 22 | 225 | 6.4 | 11.3 | 0.00 | 0.00 | 0.00 | 48 | 1003.9 |
| 20260509210405 | 22 | 225 | 11.3 | 11.3 | 0.00 | 0.00 | 0.00 | 49 | 1003.9 |
| 20260509205904 | 22 | 225 | 9.7 | 22.5 | 0.00 | 0.00 | 0.00 | 49 | 1003.9 |
| 20260509204904 | 22 | 225 | 12.9 | 14.5 | 0.00 | 0.00 | 0.00 | 49 | 1004.2 |
| 20260509204405 | 22 | 235 | 0.0 | 4.8 | 0.00 | 0.00 | 0.00 | 49 | 1004.4 |
| 20260509203905 | 22 | 181 | 11.3 | 12.9 | 0.00 | 0.00 | 0.00 | 49 | 1004.6 |
| 20260509203405 | 22 | 202 | 11.3 | 11.3 | 0.00 | 0.00 | 0.00 | 49 | 1004.6 |
| 20260509202905 | 22 | 184 | 1.6 | 9.7 | 0.00 | 0.00 | 0.00 | 50 | 1004.6 |
| 20260509202404 | 22 | 247 | 9.7 | 9.7 | 0.00 | 0.00 | 0.00 | 49 | 1004.6 |
| 20260509201405 | 22 | 202 | 20.9 | 22.5 | 0.00 | 0.00 | 0.00 | 49 | 1004.7 |
| 20260509200405 | 22 | 202 | 9.7 | 20.9 | 0.00 | 0.00 | 0.00 | 50 | 1004.9 |
| 20260509195904 | 22 | 284 | 1.6 | 9.7 | 0.00 | 0.00 | 0.00 | 49 | 1005.2 |
| 20260509195405 | 23 | 268 | 3.2 | 22.5 | 0.00 | 0.00 | 0.00 | 46 | 1005.2 |
| 20260509194904 | 23 | 180 | 9.7 | 22.5 | 0.00 | 0.00 | 0.00 | 49 | 1005.2 |
| 20260509194404 | 23 | 196 | 17.7 | 19.3 | 0.00 | 0.00 | 0.00 | 49 | 1005.2 |
| 20260509193905 | 22 | 222 | 1.6 | 9.7 | 0.00 | 0.00 | 0.00 | 48 | 1005.2 |
| 20260509193405 | 22 | 248 | 1.6 | 4.8 | 0.00 | 0.00 | 0.00 | 49 | 1005.2 |
| 20260509192904 | 22 | 225 | 8.0 | 24.1 | 0.00 | 0.00 | 0.00 | 49 | 1005.6 |
| 20260509192405 | 22 | 284 | 3.2 | 24.1 | 0.00 | 0.00 | 0.00 | 50 | 1005.6 |
| 20260509191904 | 22 | 202 | 9.7 | 14.5 | 0.00 | 0.00 | 0.00 | 51 | 1005.6 |
| 20260509191405 | 22 | 216 | 8.0 | 9.7 | 0.00 | 0.00 | 0.00 | 49 | 1005.9 |
| 20260509190904 | 22 | 225 | 4.8 | 12.9 | 0.00 | 0.00 | 0.00 | 49 | 1005.9 |
| 20260509190405 | 22 | 225 | 14.5 | 14.5 | 0.00 | 0.00 | 0.00 | 49 | 1005.9 |
| 20260509185404 | 22 | 203 | 11.3 | 19.3 | 0.00 | 0.00 | 0.00 | 49 | 1005.9 |
| 20260509184905 | 22 | 225 | 3.2 | 4.8 | 0.00 | 0.00 | 0.00 | 50 | 1005.9 |
| 20260509184405 | 22 | 260 | 0.0 | 12.9 | 0.00 | 0.00 | 0.00 | 49 | 1006.3 |
| 20260509183905 | 22 | 225 | 12.9 | 14.5 | 0.00 | 0.00 | 0.00 | 49 | 1005.9 |
| 20260509183404 | 23 | 202 | 3.2 | 11.3 | 0.00 | 0.00 | 0.00 | 50 | 1006.3 |
| 20260509182904 | 22 | 248 | 1.6 | 11.3 | 0.00 | 0.00 | 0.00 | 51 | 1006.3 |
| 20260509182405 | 22 | 249 | 11.3 | 12.9 | 0.00 | 0.00 | 0.00 | 53 | 1006.0 |
| 20260509181904 | 22 | 180 | 14.5 | 16.1 | 0.00 | 0.00 | 0.00 | 54 | 1005.9 |
| 20260509181405 | 22 | 225 | 3.2 | 3.2 | 0.00 | 0.00 | 0.00 | 55 | 1005.9 |
| 20260509180906 | 21 | 270 | 3.2 | 9.7 | 0.00 | 0.00 | 0.00 | 58 | 1005.9 |
| 20260509180406 | 21 | 248 | 6.4 | 9.7 | 0.00 | 0.00 | 0.00 | 59 | 1005.9 |
| 20260509175904 | 21 | 265 | 0.0 | 11.3 | 0.00 | 0.00 | 0.00 | 58 | 1005.9 |
| 20260509175405 | 21 | 292 | 1.6 | 1.6 | 0.00 | 0.00 | 0.00 | 57 | 1005.9 |
| 20260509174905 | 21 | 248 | 1.6 | 1.6 | 0.00 | 0.00 | 0.00 | 60 | 1006.3 |
| 20260509174405 | 21 | 263 | 0.0 | 0.0 | 0.00 | 0.00 | 0.00 | 60 | 1006.0 |
| 20260509173905 | 20 | 180 | 0.0 | 1.6 | 0.00 | 0.00 | 0.00 | 62 | 1006.3 |
| 20260509173405 | 20 | 315 | 1.6 | 1.6 | 0.00 | 0.00 | 0.00 | 62 | 1006.3 |
| 20260509172905 | 20 | 233 | 0.0 | 9.7 | 0.00 | 0.00 | 0.00 | 65 | 1006.3 |
| 20260509172405 | 20 | 292 | 6.4 | 9.7 | 0.00 | 0.00 | 0.00 | 63 | 1005.9 |
| 20260509171404 | 20 | 303 | 1.6 | 9.7 | 0.00 | 0.00 | 0.00 | 64 | 1006.3 |
| 20260509170905 | 19 | 270 | 0.0 | 0.0 | 0.00 | 0.00 | 0.00 | 67 | 1006.3 |
| 20260509170404 | 19 | 292 | 1.6 | 1.6 | 0.00 | 0.00 | 0.00 | 67 | 1006.3 |
| 20260509165904 | 18 | 255 | 1.6 | 9.7 | 0.00 | 0.00 | 0.00 | 67 | 1006.6 |
| 20260509164905 | 18 | 292 | 8.0 | 12.9 | 0.00 | 0.00 | 0.00 | 67 | 1006.6 |
| 20260509164405 | 18 | 308 | 1.6 | 12.9 | 0.00 | 0.00 | 0.00 | 66 | 1006.9 |
| 20260509163905 | 19 | 248 | 6.4 | 19.3 | 0.00 | 0.00 | 0.00 | 64 | 1006.9 |
| 20260509163404 | 20 | 292 | 20.9 | 22.5 | 0.00 | 0.00 | 0.00 | 65 | 1006.9 |
| 20260509162904 | 19 | 248 | 0.0 | 8.0 | 0.00 | 0.00 | 0.00 | 68 | 1006.6 |
| 20260509162404 | 18 | 248 | 4.8 | 8.0 | 0.00 | 0.00 | 0.00 | 68 | 1006.6 |
| 20260509161905 | 18 | 270 | 1.6 | 11.3 | 0.00 | 0.00 | 0.00 | 68 | 1006.9 |
| 20260509160905 | 18 | 248 | 3.2 | 3.2 | 0.00 | 0.00 | 0.00 | 70 | 1007.3 |
| 20260509160404 | 18 | 338 | 4.8 | 11.3 | 0.00 | 0.00 | 0.00 | 71 | 1007.3 |
| 20260509155904 | 18 | 292 | 8.0 | 11.3 | 0.00 | 0.00 | 0.00 | 71 | 1007.3 |
| 20260509155405 | 18 | 270 | 3.2 | 4.8 | 0.00 | 0.00 | 0.00 | 70 | 1007.6 |
| 20260509154905 | 18 | 270 | 1.6 | 1.6 | 0.00 | 0.00 | 0.00 | 71 | 1007.6 |
| 20260509153905 | 17 | 270 | 1.6 | 9.7 | 0.00 | 0.00 | 0.00 | 72 | 1007.6 |
| 20260509153404 | 17 | 315 | 9.7 | 9.7 | 0.00 | 0.00 | 0.00 | 71 | 1007.6 |
| 20260509152905 | 17 | 292 | 11.3 | 11.3 | 0.00 | 0.00 | 0.00 | 72 | 1007.6 |
| 20260509152404 | 17 | 315 | 4.8 | 4.8 | 0.00 | 0.00 | 0.00 | 73 | 1007.9 |
| 20260509151905 | 17 | 248 | 1.6 | 16.1 | 0.00 | 0.00 | 0.00 | 74 | 1007.6 |
| 20260509151404 | 17 | 279 | 1.6 | 16.1 | 0.00 | 0.00 | 0.00 | 75 | 1007.6 |
| 20260509150904 | 16 | 270 | 1.6 | 11.3 | 0.00 | 0.00 | 0.00 | 74 | 1007.6 |
| 20260509150405 | 17 | 225 | 8.0 | 11.3 | 0.00 | 0.00 | 0.00 | 74 | 1007.6 |
| 20260509145905 | 16 | 292 | 0.0 | 0.0 | 0.00 | 0.00 | 0.00 | 75 | 1007.6 |
| 20260509145404 | 16 | 248 | 0.0 | 0.0 | 0.00 | 0.00 | 0.00 | 74 | 1007.6 |
| 20260509144405 | 17 | 302 | 12.9 | 22.5 | 0.00 | 0.00 | 0.00 | 72 | 1007.3 |
| 20260509143905 | 17 | 248 | 1.6 | 8.0 | 0.00 | 0.00 | 0.00 | 74 | 1007.3 |
| 20260509142904 | 16 | 235 | 1.6 | 12.9 | 0.00 | 0.00 | 0.00 | 75 | 1007.6 |
| 20260509142405 | 16 | 270 | 0.0 | 0.0 | 0.00 | 0.00 | 0.00 | 76 | 1007.6 |
| 20260509141904 | 16 | 202 | 1.6 | 3.2 | 0.00 | 0.00 | 0.00 | 77 | 1007.6 |
| 20260509141405 | 16 | 252 | 0.0 | 3.2 | 0.00 | 0.00 | 0.00 | 78 | 1007.6 |
| 20260509140904 | 16 | 270 | 0.0 | 0.0 | 0.00 | 0.00 | 0.00 | 79 | 1007.6 |
| 20260509140405 | 15 | 248 | 4.8 | 4.8 | 0.00 | 0.00 | 0.00 | 80 | 1007.4 |
| 20260509135905 | 15 | 248 | 0.0 | 0.0 | 0.00 | 0.00 | 0.00 | 80 | 1007.6 |
| 20260509135404 | 15 | 292 | 0.0 | 0.0 | 0.00 | 0.00 | 0.00 | 81 | 1007.6 |
| 20260509134405 | 15 | 270 | 0.0 | 0.0 | 0.00 | 0.00 | 0.00 | 81 | 1007.6 |
| 20260509133405 | 15 | 248 | 0.0 | 0.0 | 0.00 | 0.00 | 0.00 | 83 | 1007.6 |
| 20260509132905 | 15 | 236 | 3.2 | 3.2 | 0.00 | 0.00 | 0.00 | 83 | 1007.6 |
| 20260509132405 | 14 | 202 | 0.0 | 0.0 | 0.00 | 0.00 | 0.00 | 84 | 1007.6 |
| 20260509131904 | 14 | 248 | 0.0 | 0.0 | 0.00 | 0.00 | 0.00 | 84 | 1007.6 |
| 20260509131405 | 14 | 191 | 0.0 | 0.0 | 0.00 | 0.00 | 0.00 | 84 | 1007.6 |
| 20260509130905 | 14 | 202 | 0.0 | 0.0 | 0.00 | 0.00 | 0.00 | 84 | 1007.6 |
| 20260509130404 | 14 | 202 | 0.0 | 0.0 | 0.00 | 0.00 | 0.00 | 84 | 1007.6 |
| 20260509125905 | 14 | 225 | 0.0 | 0.0 | 0.00 | 0.00 | 0.00 | 84 | 1007.6 |
| 20260509125405 | 14 | 180 | 0.0 | 0.0 | 0.00 | 0.00 | 0.00 | 84 | 1007.6 |
| 20260509124905 | 14 | 225 | 0.0 | 0.0 | 0.00 | 0.00 | 0.00 | 85 | 1007.6 |
| 20260509124404 | 14 | 222 | 0.0 | 0.0 | 0.00 | 0.00 | 0.00 | 85 | 1007.6 |
| 20260509123405 | 13 | 180 | 0.0 | 0.0 | 0.00 | 0.00 | 0.00 | 86 | 1007.6 |
| 20260509122904 | 13 | 180 | 0.0 | 0.0 | 0.00 | 0.00 | 0.00 | 86 | 1007.6 |
| 20260509122405 | 13 | 202 | 0.0 | 0.0 | 0.00 | 0.00 | 0.00 | 87 | 1007.6 |
| 20260509121905 | 13 | 180 | 0.0 | 0.0 | 0.00 | 0.00 | 0.00 | 87 | 1007.6 |
| 20260509121405 | 13 | 218 | 0.0 | 0.0 | 0.00 | 0.00 | 0.00 | 87 | 1008.0 |
| 20260509120905 | 13 | 202 | 0.0 | 0.0 | 0.00 | 0.00 | 0.00 | 88 | 1008.0 |
| 20260509120405 | 13 | 200 | 0.0 | 0.0 | 0.00 | 0.00 | 0.00 | 88 | 1008.0 |
| 20260509115905 | 12 | 180 | 8.0 | 8.0 | 0.00 | 0.00 | 0.00 | 88 | 1008.0 |
| 20260509115404 | 12 | 180 | 0.0 | 0.0 | 0.00 | 0.00 | 0.00 | 88 | 1008.0 |
| 20260509114904 | 12 | 180 | 0.0 | 0.0 | 0.00 | 0.00 | 0.00 | 88 | 1008.0 |
| 20260509114404 | 12 | 170 | 0.0 | 0.0 | 0.00 | 0.00 | 0.00 | 88 | 1008.0 |
| 20260509113905 | 12 | 180 | 0.0 | 0.0 | 0.00 | 0.00 | 0.00 | 88 | 1008.0 |
| 20260509113405 | 12 | 202 | 0.0 | 0.0 | 0.00 | 0.00 | 0.00 | 88 | 1008.0 |
| 20260509112905 | 12 | 201 | 0.0 | 0.0 | 0.00 | 0.00 | 0.00 | 88 | 1007.7 |
| 20260509112404 | 12 | 180 | 0.0 | 0.0 | 0.00 | 0.00 | 0.00 | 88 | 1007.6 |
| 20260509111905 | 12 | 180 | 0.0 | 0.0 | 0.00 | 0.00 | 0.00 | 88 | 1007.7 |
| 20260509111405 | 12 | 190 | 0.0 | 0.0 | 0.00 | 0.00 | 0.00 | 88 | 1007.6 |
| 20260509110905 | 12 | 180 | 0.0 | 0.0 | 0.00 | 0.00 | 0.00 | 88 | 1007.6 |
| 20260509110405 | 12 | 180 | 0.0 | 0.0 | 0.00 | 0.00 | 0.00 | 88 | 1007.6 |
| 20260509105405 | 12 | 202 | 0.0 | 0.0 | 0.00 | 0.00 | 0.00 | 88 | 1007.6 |
| 20260509104904 | 12 | 202 | 9.7 | 12.9 | 0.00 | 0.00 | 0.00 | 88 | 1007.6 |
| 20260509104404 | 12 | 180 | 0.0 | 0.0 | 0.00 | 0.00 | 0.00 | 89 | 1007.6 |